sensor_id;sensor_type;location;lat;lon;timestamp;P1;durP1;ratioP1;P2;durP2;ratioP2
28653;SDS011;24320;56.980;24.336;2023-05-29T00:00:48;6.68;;;2.90;;
28653;SDS011;24320;56.980;24.336;2023-05-29T00:03:15;4.97;;;2.70;;
28653;SDS011;24320;56.980;24.336;2023-05-29T00:05:44;13.02;;;2.90;;
28653;SDS011;24320;56.980;24.336;2023-05-29T00:08:11;6.07;;;3.08;;
28653;SDS011;24320;56.980;24.336;2023-05-29T00:10:38;7.53;;;3.53;;
28653;SDS011;24320;56.980;24.336;2023-05-29T00:13:06;9.07;;;3.15;;
28653;SDS011;24320;56.980;24.336;2023-05-29T00:15:34;5.50;;;2.97;;
28653;SDS011;24320;56.980;24.336;2023-05-29T00:18:01;8.57;;;3.25;;
28653;SDS011;24320;56.980;24.336;2023-05-29T00:20:28;7.90;;;3.60;;
28653;SDS011;24320;56.980;24.336;2023-05-29T00:22:55;5.05;;;2.83;;
28653;SDS011;24320;56.980;24.336;2023-05-29T00:25:23;6.97;;;3.50;;
28653;SDS011;24320;56.980;24.336;2023-05-29T00:27:50;12.38;;;3.28;;
28653;SDS011;24320;56.980;24.336;2023-05-29T00:30:17;7.25;;;3.38;;
28653;SDS011;24320;56.980;24.336;2023-05-29T00:32:44;9.73;;;3.10;;
28653;SDS011;24320;56.980;24.336;2023-05-29T00:35:12;10.00;;;3.13;;
28653;SDS011;24320;56.980;24.336;2023-05-29T00:37:39;9.18;;;3.70;;
28653;SDS011;24320;56.980;24.336;2023-05-29T00:40:06;11.13;;;3.75;;
28653;SDS011;24320;56.980;24.336;2023-05-29T00:42:34;9.38;;;3.78;;
28653;SDS011;24320;56.980;24.336;2023-05-29T00:45:01;10.52;;;3.65;;
28653;SDS011;24320;56.980;24.336;2023-05-29T00:47:29;8.43;;;3.45;;
28653;SDS011;24320;56.980;24.336;2023-05-29T00:49:56;12.68;;;3.78;;
28653;SDS011;24320;56.980;24.336;2023-05-29T00:52:24;10.65;;;3.67;;
28653;SDS011;24320;56.980;24.336;2023-05-29T00:54:52;9.07;;;3.58;;
28653;SDS011;24320;56.980;24.336;2023-05-29T00:57:21;8.10;;;3.88;;
28653;SDS011;24320;56.980;24.336;2023-05-29T00:59:49;7.10;;;3.60;;
28653;SDS011;24320;56.980;24.336;2023-05-29T01:02:17;10.65;;;3.90;;
28653;SDS011;24320;56.980;24.336;2023-05-29T01:04:47;9.07;;;3.95;;
28653;SDS011;24320;56.980;24.336;2023-05-29T01:07:14;8.20;;;4.00;;
28653;SDS011;24320;56.980;24.336;2023-05-29T01:09:41;7.60;;;3.45;;
28653;SDS011;24320;56.980;24.336;2023-05-29T01:20:52;8.85;;;3.53;;
28653;SDS011;24320;56.980;24.336;2023-05-29T01:29:32;7.70;;;3.50;;
28653;SDS011;24320;56.980;24.336;2023-05-29T01:32:01;9.02;;;3.75;;
28653;SDS011;24320;56.980;24.336;2023-05-29T01:34:28;8.07;;;3.63;;
28653;SDS011;24320;56.980;24.336;2023-05-29T01:36:56;13.07;;;4.90;;
28653;SDS011;24320;56.980;24.336;2023-05-29T01:39:23;21.85;;;6.93;;
28653;SDS011;24320;56.980;24.336;2023-05-29T01:41:51;15.23;;;4.95;;
28653;SDS011;24320;56.980;24.336;2023-05-29T01:44:20;9.48;;;3.60;;
28653;SDS011;24320;56.980;24.336;2023-05-29T01:46:48;9.82;;;3.47;;
28653;SDS011;24320;56.980;24.336;2023-05-29T01:49:16;11.55;;;4.05;;
28653;SDS011;24320;56.980;24.336;2023-05-29T01:51:43;7.03;;;3.33;;
28653;SDS011;24320;56.980;24.336;2023-05-29T01:54:11;6.72;;;3.63;;
28653;SDS011;24320;56.980;24.336;2023-05-29T01:56:38;8.85;;;3.83;;
28653;SDS011;24320;56.980;24.336;2023-05-29T01:59:05;7.90;;;4.55;;
28653;SDS011;24320;56.980;24.336;2023-05-29T02:01:33;9.18;;;3.97;;
28653;SDS011;24320;56.980;24.336;2023-05-29T02:04:00;9.68;;;3.78;;
28653;SDS011;24320;56.980;24.336;2023-05-29T02:06:27;6.00;;;3.08;;
28653;SDS011;24320;56.980;24.336;2023-05-29T02:08:54;9.63;;;3.65;;
28653;SDS011;24320;56.980;24.336;2023-05-29T02:11:21;8.82;;;3.60;;
28653;SDS011;24320;56.980;24.336;2023-05-29T02:13:48;5.90;;;3.30;;
28653;SDS011;24320;56.980;24.336;2023-05-29T02:16:15;5.10;;;3.13;;
28653;SDS011;24320;56.980;24.336;2023-05-29T02:18:43;10.20;;;3.53;;
28653;SDS011;24320;56.980;24.336;2023-05-29T02:21:11;9.07;;;3.90;;
28653;SDS011;24320;56.980;24.336;2023-05-29T02:23:38;8.95;;;4.15;;
28653;SDS011;24320;56.980;24.336;2023-05-29T02:26:06;12.25;;;4.20;;
28653;SDS011;24320;56.980;24.336;2023-05-29T02:28:33;6.47;;;3.47;;
28653;SDS011;24320;56.980;24.336;2023-05-29T02:31:02;11.70;;;3.85;;
28653;SDS011;24320;56.980;24.336;2023-05-29T02:33:29;8.23;;;3.80;;
28653;SDS011;24320;56.980;24.336;2023-05-29T02:35:56;10.68;;;3.90;;
28653;SDS011;24320;56.980;24.336;2023-05-29T02:38:23;8.18;;;3.88;;
28653;SDS011;24320;56.980;24.336;2023-05-29T02:40:50;11.20;;;4.05;;
28653;SDS011;24320;56.980;24.336;2023-05-29T02:43:26;16.42;;;4.18;;
28653;SDS011;24320;56.980;24.336;2023-05-29T02:46:01;11.32;;;4.20;;
28653;SDS011;24320;56.980;24.336;2023-05-29T02:48:28;8.65;;;3.97;;
28653;SDS011;24320;56.980;24.336;2023-05-29T02:50:56;14.05;;;3.70;;
28653;SDS011;24320;56.980;24.336;2023-05-29T02:53:23;8.30;;;3.88;;
28653;SDS011;24320;56.980;24.336;2023-05-29T02:55:50;7.20;;;3.70;;
28653;SDS011;24320;56.980;24.336;2023-05-29T02:58:17;8.35;;;3.58;;
28653;SDS011;24320;56.980;24.336;2023-05-29T03:00:44;6.28;;;3.50;;
28653;SDS011;24320;56.980;24.336;2023-05-29T03:03:12;8.00;;;3.97;;
28653;SDS011;24320;56.980;24.336;2023-05-29T03:05:39;8.10;;;3.10;;
28653;SDS011;24320;56.980;24.336;2023-05-29T03:08:06;6.28;;;3.00;;
28653;SDS011;24320;56.980;24.336;2023-05-29T03:10:33;4.72;;;2.55;;
28653;SDS011;24320;56.980;24.336;2023-05-29T03:13:00;4.78;;;2.92;;
28653;SDS011;24320;56.980;24.336;2023-05-29T03:15:27;5.05;;;3.10;;
28653;SDS011;24320;56.980;24.336;2023-05-29T03:17:54;9.13;;;4.82;;
28653;SDS011;24320;56.980;24.336;2023-05-29T03:20:21;4.57;;;3.28;;
28653;SDS011;24320;56.980;24.336;2023-05-29T03:22:50;7.35;;;2.85;;
28653;SDS011;24320;56.980;24.336;2023-05-29T03:25:18;5.05;;;2.63;;
28653;SDS011;24320;56.980;24.336;2023-05-29T03:27:48;13.48;;;7.75;;
28653;SDS011;24320;56.980;24.336;2023-05-29T03:30:15;6.13;;;4.43;;
28653;SDS011;24320;56.980;24.336;2023-05-29T03:32:42;9.25;;;6.10;;
28653;SDS011;24320;56.980;24.336;2023-05-29T03:35:09;6.07;;;3.38;;
28653;SDS011;24320;56.980;24.336;2023-05-29T03:37:36;6.07;;;2.67;;
28653;SDS011;24320;56.980;24.336;2023-05-29T03:40:03;5.93;;;2.80;;
28653;SDS011;24320;56.980;24.336;2023-05-29T03:42:31;75.60;;;8.02;;
28653;SDS011;24320;56.980;24.336;2023-05-29T03:44:58;11.38;;;3.35;;
28653;SDS011;24320;56.980;24.336;2023-05-29T03:47:25;11.90;;;3.53;;
28653;SDS011;24320;56.980;24.336;2023-05-29T03:49:52;16.35;;;6.00;;
28653;SDS011;24320;56.980;24.336;2023-05-29T03:52:19;9.18;;;4.13;;
28653;SDS011;24320;56.980;24.336;2023-05-29T03:54:46;12.48;;;3.63;;
28653;SDS011;24320;56.980;24.336;2023-05-29T03:57:14;13.75;;;3.50;;
28653;SDS011;24320;56.980;24.336;2023-05-29T03:59:41;9.98;;;3.38;;
28653;SDS011;24320;56.980;24.336;2023-05-29T04:02:08;3.55;;;2.25;;
28653;SDS011;24320;56.980;24.336;2023-05-29T04:04:36;5.63;;;2.83;;
28653;SDS011;24320;56.980;24.336;2023-05-29T04:07:06;10.90;;;2.80;;
28653;SDS011;24320;56.980;24.336;2023-05-29T04:09:33;3.60;;;2.35;;
28653;SDS011;24320;56.980;24.336;2023-05-29T04:12:00;7.50;;;4.85;;
28653;SDS011;24320;56.980;24.336;2023-05-29T04:14:32;8.30;;;3.92;;
28653;SDS011;24320;56.980;24.336;2023-05-29T04:16:59;6.82;;;2.90;;
28653;SDS011;24320;56.980;24.336;2023-05-29T04:19:26;7.53;;;3.38;;
28653;SDS011;24320;56.980;24.336;2023-05-29T04:21:53;6.80;;;3.35;;
28653;SDS011;24320;56.980;24.336;2023-05-29T04:24:20;4.15;;;2.80;;
28653;SDS011;24320;56.980;24.336;2023-05-29T04:26:47;5.65;;;2.65;;
28653;SDS011;24320;56.980;24.336;2023-05-29T04:29:14;7.72;;;2.72;;
28653;SDS011;24320;56.980;24.336;2023-05-29T04:31:41;9.57;;;2.67;;
28653;SDS011;24320;56.980;24.336;2023-05-29T04:34:08;7.70;;;2.15;;
28653;SDS011;24320;56.980;24.336;2023-05-29T04:36:36;13.75;;;2.92;;
28653;SDS011;24320;56.980;24.336;2023-05-29T04:39:07;7.57;;;3.10;;
28653;SDS011;24320;56.980;24.336;2023-05-29T04:41:34;7.63;;;2.30;;
28653;SDS011;24320;56.980;24.336;2023-05-29T04:44:02;5.25;;;2.08;;
28653;SDS011;24320;56.980;24.336;2023-05-29T04:46:30;6.43;;;2.10;;
28653;SDS011;24320;56.980;24.336;2023-05-29T04:48:57;7.03;;;2.00;;
28653;SDS011;24320;56.980;24.336;2023-05-29T04:51:24;52.75;;;5.25;;
28653;SDS011;24320;56.980;24.336;2023-05-29T04:53:51;10.75;;;3.10;;
28653;SDS011;24320;56.980;24.336;2023-05-29T04:56:18;5.40;;;3.20;;
28653;SDS011;24320;56.980;24.336;2023-05-29T04:58:46;9.77;;;2.78;;
28653;SDS011;24320;56.980;24.336;2023-05-29T05:01:14;7.45;;;2.47;;
28653;SDS011;24320;56.980;24.336;2023-05-29T05:03:41;7.03;;;2.80;;
28653;SDS011;24320;56.980;24.336;2023-05-29T05:06:09;25.23;;;3.65;;
28653;SDS011;24320;56.980;24.336;2023-05-29T05:08:36;8.80;;;2.22;;
28653;SDS011;24320;56.980;24.336;2023-05-29T05:11:03;6.80;;;2.45;;
28653;SDS011;24320;56.980;24.336;2023-05-29T05:13:33;5.50;;;2.00;;
28653;SDS011;24320;56.980;24.336;2023-05-29T05:16:00;5.90;;;2.05;;
28653;SDS011;24320;56.980;24.336;2023-05-29T05:18:27;3.92;;;1.95;;
28653;SDS011;24320;56.980;24.336;2023-05-29T05:20:54;4.18;;;1.80;;
28653;SDS011;24320;56.980;24.336;2023-05-29T05:23:22;8.20;;;2.53;;
28653;SDS011;24320;56.980;24.336;2023-05-29T05:25:49;6.25;;;2.35;;
28653;SDS011;24320;56.980;24.336;2023-05-29T05:28:16;5.18;;;2.40;;
28653;SDS011;24320;56.980;24.336;2023-05-29T05:30:43;7.07;;;2.50;;
28653;SDS011;24320;56.980;24.336;2023-05-29T05:33:10;23.27;;;3.03;;
28653;SDS011;24320;56.980;24.336;2023-05-29T05:35:37;5.80;;;2.03;;
28653;SDS011;24320;56.980;24.336;2023-05-29T05:38:04;6.68;;;2.35;;
28653;SDS011;24320;56.980;24.336;2023-05-29T05:40:32;4.90;;;2.00;;
28653;SDS011;24320;56.980;24.336;2023-05-29T05:42:59;5.82;;;2.45;;
28653;SDS011;24320;56.980;24.336;2023-05-29T05:45:26;6.28;;;2.58;;
28653;SDS011;24320;56.980;24.336;2023-05-29T05:47:53;5.47;;;2.30;;
28653;SDS011;24320;56.980;24.336;2023-05-29T05:50:21;7.07;;;2.70;;
28653;SDS011;24320;56.980;24.336;2023-05-29T05:52:48;3.88;;;2.20;;
28653;SDS011;24320;56.980;24.336;2023-05-29T05:55:16;6.78;;;2.50;;
28653;SDS011;24320;56.980;24.336;2023-05-29T05:57:43;5.45;;;2.20;;
28653;SDS011;24320;56.980;24.336;2023-05-29T06:00:10;4.30;;;2.67;;
28653;SDS011;24320;56.980;24.336;2023-05-29T06:02:38;4.90;;;2.30;;
28653;SDS011;24320;56.980;24.336;2023-05-29T06:05:09;5.05;;;2.50;;
28653;SDS011;24320;56.980;24.336;2023-05-29T06:07:37;7.90;;;2.50;;
28653;SDS011;24320;56.980;24.336;2023-05-29T06:10:05;7.93;;;2.42;;
28653;SDS011;24320;56.980;24.336;2023-05-29T06:12:33;5.40;;;2.50;;
28653;SDS011;24320;56.980;24.336;2023-05-29T06:15:01;6.07;;;2.50;;
28653;SDS011;24320;56.980;24.336;2023-05-29T06:17:29;7.50;;;2.45;;
28653;SDS011;24320;56.980;24.336;2023-05-29T06:19:56;5.95;;;2.33;;
28653;SDS011;24320;56.980;24.336;2023-05-29T06:22:24;4.53;;;2.65;;
28653;SDS011;24320;56.980;24.336;2023-05-29T06:24:51;7.20;;;2.38;;
28653;SDS011;24320;56.980;24.336;2023-05-29T06:27:18;13.73;;;2.50;;
28653;SDS011;24320;56.980;24.336;2023-05-29T06:29:46;4.65;;;2.10;;
28653;SDS011;24320;56.980;24.336;2023-05-29T06:32:13;4.30;;;3.25;;
28653;SDS011;24320;56.980;24.336;2023-05-29T06:34:40;5.85;;;4.13;;
28653;SDS011;24320;56.980;24.336;2023-05-29T06:37:07;7.07;;;4.15;;
28653;SDS011;24320;56.980;24.336;2023-05-29T06:39:35;6.85;;;4.43;;
28653;SDS011;24320;56.980;24.336;2023-05-29T06:42:02;7.40;;;4.32;;
28653;SDS011;24320;56.980;24.336;2023-05-29T06:44:30;6.28;;;4.43;;
28653;SDS011;24320;56.980;24.336;2023-05-29T06:46:57;7.65;;;4.57;;
28653;SDS011;24320;56.980;24.336;2023-05-29T06:49:24;8.90;;;4.40;;
28653;SDS011;24320;56.980;24.336;2023-05-29T06:51:51;6.82;;;4.25;;
28653;SDS011;24320;56.980;24.336;2023-05-29T06:54:18;8.80;;;4.55;;
28653;SDS011;24320;56.980;24.336;2023-05-29T06:56:45;16.23;;;5.57;;
28653;SDS011;24320;56.980;24.336;2023-05-29T06:59:27;9.25;;;5.30;;
28653;SDS011;24320;56.980;24.336;2023-05-29T07:01:55;8.02;;;5.50;;
28653;SDS011;24320;56.980;24.336;2023-05-29T07:04:22;14.30;;;5.72;;
28653;SDS011;24320;56.980;24.336;2023-05-29T07:06:49;8.93;;;5.13;;
28653;SDS011;24320;56.980;24.336;2023-05-29T07:09:17;7.45;;;3.80;;
28653;SDS011;24320;56.980;24.336;2023-05-29T07:11:44;7.40;;;3.47;;
28653;SDS011;24320;56.980;24.336;2023-05-29T07:14:11;5.32;;;3.00;;
28653;SDS011;24320;56.980;24.336;2023-05-29T07:16:38;6.35;;;3.00;;
28653;SDS011;24320;56.980;24.336;2023-05-29T07:19:06;6.15;;;2.63;;
28653;SDS011;24320;56.980;24.336;2023-05-29T07:21:44;5.07;;;2.92;;
28653;SDS011;24320;56.980;24.336;2023-05-29T07:24:12;8.60;;;3.20;;
28653;SDS011;24320;56.980;24.336;2023-05-29T07:26:39;5.63;;;2.70;;
28653;SDS011;24320;56.980;24.336;2023-05-29T07:29:06;4.40;;;2.10;;
28653;SDS011;24320;56.980;24.336;2023-05-29T07:31:33;3.70;;;2.22;;
28653;SDS011;24320;56.980;24.336;2023-05-29T07:34:01;3.95;;;2.20;;
28653;SDS011;24320;56.980;24.336;2023-05-29T07:36:29;7.22;;;2.20;;
28653;SDS011;24320;56.980;24.336;2023-05-29T07:38:59;9.30;;;2.13;;
28653;SDS011;24320;56.980;24.336;2023-05-29T07:41:26;6.38;;;2.40;;
28653;SDS011;24320;56.980;24.336;2023-05-29T07:43:53;8.50;;;2.28;;
28653;SDS011;24320;56.980;24.336;2023-05-29T07:46:27;19.15;;;6.45;;
28653;SDS011;24320;56.980;24.336;2023-05-29T07:48:56;7.47;;;2.50;;
28653;SDS011;24320;56.980;24.336;2023-05-29T07:51:23;8.52;;;2.35;;
28653;SDS011;24320;56.980;24.336;2023-05-29T07:53:51;6.38;;;2.60;;
28653;SDS011;24320;56.980;24.336;2023-05-29T07:56:19;3.95;;;1.95;;
28653;SDS011;24320;56.980;24.336;2023-05-29T07:58:47;4.32;;;2.17;;
28653;SDS011;24320;56.980;24.336;2023-05-29T08:01:14;3.97;;;1.95;;
28653;SDS011;24320;56.980;24.336;2023-05-29T08:03:41;3.65;;;2.40;;
28653;SDS011;24320;56.980;24.336;2023-05-29T08:06:10;5.88;;;2.10;;
28653;SDS011;24320;56.980;24.336;2023-05-29T08:08:37;7.55;;;2.40;;
28653;SDS011;24320;56.980;24.336;2023-05-29T08:11:04;4.72;;;2.30;;
28653;SDS011;24320;56.980;24.336;2023-05-29T08:13:31;10.90;;;2.40;;
28653;SDS011;24320;56.980;24.336;2023-05-29T08:15:58;4.82;;;2.20;;
28653;SDS011;24320;56.980;24.336;2023-05-29T08:18:25;6.20;;;2.13;;
28653;SDS011;24320;56.980;24.336;2023-05-29T08:20:53;6.97;;;2.85;;
28653;SDS011;24320;56.980;24.336;2023-05-29T08:23:23;7.07;;;2.13;;
28653;SDS011;24320;56.980;24.336;2023-05-29T08:25:50;7.78;;;2.13;;
28653;SDS011;24320;56.980;24.336;2023-05-29T08:28:17;6.95;;;2.13;;
28653;SDS011;24320;56.980;24.336;2023-05-29T08:30:45;4.10;;;1.98;;
28653;SDS011;24320;56.980;24.336;2023-05-29T08:33:12;5.57;;;2.60;;
28653;SDS011;24320;56.980;24.336;2023-05-29T08:35:39;5.03;;;2.45;;
28653;SDS011;24320;56.980;24.336;2023-05-29T08:38:06;4.38;;;1.95;;
28653;SDS011;24320;56.980;24.336;2023-05-29T08:40:33;8.80;;;2.13;;
28653;SDS011;24320;56.980;24.336;2023-05-29T08:43:02;3.95;;;2.20;;
28653;SDS011;24320;56.980;24.336;2023-05-29T08:45:34;5.13;;;2.30;;
28653;SDS011;24320;56.980;24.336;2023-05-29T08:48:08;4.10;;;2.63;;
28653;SDS011;24320;56.980;24.336;2023-05-29T08:50:43;16.30;;;2.80;;
28653;SDS011;24320;56.980;24.336;2023-05-29T08:53:14;7.20;;;2.50;;
28653;SDS011;24320;56.980;24.336;2023-05-29T08:55:42;5.75;;;2.20;;
28653;SDS011;24320;56.980;24.336;2023-05-29T08:58:11;6.72;;;2.30;;
28653;SDS011;24320;56.980;24.336;2023-05-29T09:00:38;4.88;;;2.20;;
28653;SDS011;24320;56.980;24.336;2023-05-29T09:03:07;7.85;;;2.65;;
28653;SDS011;24320;56.980;24.336;2023-05-29T09:05:34;5.75;;;2.45;;
28653;SDS011;24320;56.980;24.336;2023-05-29T09:08:06;7.05;;;2.60;;
28653;SDS011;24320;56.980;24.336;2023-05-29T09:10:39;8.68;;;2.20;;
28653;SDS011;24320;56.980;24.336;2023-05-29T09:13:11;5.63;;;2.22;;
28653;SDS011;24320;56.980;24.336;2023-05-29T09:15:40;5.53;;;2.17;;
28653;SDS011;24320;56.980;24.336;2023-05-29T09:18:10;16.45;;;2.90;;
28653;SDS011;24320;56.980;24.336;2023-05-29T09:20:38;8.05;;;2.70;;
28653;SDS011;24320;56.980;24.336;2023-05-29T09:23:06;6.03;;;2.03;;
28653;SDS011;24320;56.980;24.336;2023-05-29T09:25:40;6.30;;;2.40;;
28653;SDS011;24320;56.980;24.336;2023-05-29T09:28:11;5.22;;;2.00;;
28653;SDS011;24320;56.980;24.336;2023-05-29T09:30:39;5.80;;;2.28;;
28653;SDS011;24320;56.980;24.336;2023-05-29T09:33:07;4.53;;;2.38;;
28653;SDS011;24320;56.980;24.336;2023-05-29T09:38:12;3.47;;;1.70;;
28653;SDS011;24320;56.980;24.336;2023-05-29T09:40:47;7.30;;;2.40;;
28653;SDS011;24320;56.980;24.336;2023-05-29T09:43:18;4.28;;;2.20;;
28653;SDS011;24320;56.980;24.336;2023-05-29T09:45:47;4.93;;;2.50;;
28653;SDS011;24320;56.980;24.336;2023-05-29T09:48:16;4.97;;;2.20;;
28653;SDS011;24320;56.980;24.336;2023-05-29T09:50:44;14.30;;;2.40;;
28653;SDS011;24320;56.980;24.336;2023-05-29T09:55:46;5.65;;;2.00;;
28653;SDS011;24320;56.980;24.336;2023-05-29T09:58:14;4.30;;;2.15;;
28653;SDS011;24320;56.980;24.336;2023-05-29T10:00:42;4.60;;;1.85;;
28653;SDS011;24320;56.980;24.336;2023-05-29T10:03:10;2.60;;;1.80;;
28653;SDS011;24320;56.980;24.336;2023-05-29T10:05:39;8.25;;;2.30;;
28653;SDS011;24320;56.980;24.336;2023-05-29T10:08:08;5.70;;;2.20;;
28653;SDS011;24320;56.980;24.336;2023-05-29T10:10:44;6.90;;;2.20;;
28653;SDS011;24320;56.980;24.336;2023-05-29T10:13:19;4.53;;;1.88;;
28653;SDS011;24320;56.980;24.336;2023-05-29T10:15:51;5.13;;;2.22;;
28653;SDS011;24320;56.980;24.336;2023-05-29T10:18:23;3.58;;;1.90;;
28653;SDS011;24320;56.980;24.336;2023-05-29T10:20:54;13.68;;;7.57;;
28653;SDS011;24320;56.980;24.336;2023-05-29T10:23:25;2.15;;;1.42;;
28653;SDS011;24320;56.980;24.336;2023-05-29T10:25:55;5.85;;;2.72;;
28653;SDS011;24320;56.980;24.336;2023-05-29T10:28:30;50.30;;;4.63;;
28653;SDS011;24320;56.980;24.336;2023-05-29T10:31:03;4.22;;;2.05;;
28653;SDS011;24320;56.980;24.336;2023-05-29T10:38:40;4.65;;;2.55;;
28653;SDS011;24320;56.980;24.336;2023-05-29T10:43:53;9.60;;;7.13;;
28653;SDS011;24320;56.980;24.336;2023-05-29T10:46:21;4.68;;;2.30;;
28653;SDS011;24320;56.980;24.336;2023-05-29T10:49:15;5.40;;;2.10;;
28653;SDS011;24320;56.980;24.336;2023-05-29T10:51:43;6.95;;;1.95;;
28653;SDS011;24320;56.980;24.336;2023-05-29T10:54:11;9.13;;;3.17;;
28653;SDS011;24320;56.980;24.336;2023-05-29T10:56:40;2.58;;;1.40;;
28653;SDS011;24320;56.980;24.336;2023-05-29T10:59:10;4.18;;;1.60;;
28653;SDS011;24320;56.980;24.336;2023-05-29T11:01:40;4.28;;;1.70;;
28653;SDS011;24320;56.980;24.336;2023-05-29T11:06:46;4.18;;;1.48;;
28653;SDS011;24320;56.980;24.336;2023-05-29T11:09:33;3.75;;;1.80;;
28653;SDS011;24320;56.980;24.336;2023-05-29T11:20:07;2.38;;;1.60;;
28653;SDS011;24320;56.980;24.336;2023-05-29T11:23:00;4.68;;;2.25;;
28653;SDS011;24320;56.980;24.336;2023-05-29T11:25:29;2.30;;;1.45;;
28653;SDS011;24320;56.980;24.336;2023-05-29T11:28:01;2.28;;;1.40;;
28653;SDS011;24320;56.980;24.336;2023-05-29T11:30:31;2.75;;;1.67;;
28653;SDS011;24320;56.980;24.336;2023-05-29T11:32:59;4.55;;;1.73;;
28653;SDS011;24320;56.980;24.336;2023-05-29T11:35:31;2.85;;;1.67;;
28653;SDS011;24320;56.980;24.336;2023-05-29T11:38:01;2.90;;;1.50;;
28653;SDS011;24320;56.980;24.336;2023-05-29T11:40:35;2.10;;;1.63;;
28653;SDS011;24320;56.980;24.336;2023-05-29T11:43:03;4.13;;;1.52;;
28653;SDS011;24320;56.980;24.336;2023-05-29T11:45:32;2.80;;;1.70;;
28653;SDS011;24320;56.980;24.336;2023-05-29T11:48:02;1.52;;;1.20;;
28653;SDS011;24320;56.980;24.336;2023-05-29T11:50:30;3.70;;;1.30;;
28653;SDS011;24320;56.980;24.336;2023-05-29T11:52:59;3.92;;;1.38;;
28653;SDS011;24320;56.980;24.336;2023-05-29T11:55:26;3.67;;;1.30;;
28653;SDS011;24320;56.980;24.336;2023-05-29T11:57:58;3.95;;;1.83;;
28653;SDS011;24320;56.980;24.336;2023-05-29T12:00:29;1.83;;;1.15;;
28653;SDS011;24320;56.980;24.336;2023-05-29T12:02:58;3.30;;;1.55;;
28653;SDS011;24320;56.980;24.336;2023-05-29T12:05:31;4.88;;;1.48;;
28653;SDS011;24320;56.980;24.336;2023-05-29T12:07:58;3.60;;;1.20;;
28653;SDS011;24320;56.980;24.336;2023-05-29T12:10:30;3.03;;;1.30;;
28653;SDS011;24320;56.980;24.336;2023-05-29T12:12:58;2.55;;;1.50;;
28653;SDS011;24320;56.980;24.336;2023-05-29T12:15:27;3.22;;;1.33;;
28653;SDS011;24320;56.980;24.336;2023-05-29T12:17:55;2.95;;;1.30;;
28653;SDS011;24320;56.980;24.336;2023-05-29T12:20:23;1.92;;;1.50;;
28653;SDS011;24320;56.980;24.336;2023-05-29T12:25:25;4.60;;;1.58;;
28653;SDS011;24320;56.980;24.336;2023-05-29T12:27:52;1.23;;;1.05;;
28653;SDS011;24320;56.980;24.336;2023-05-29T12:30:23;7.37;;;1.50;;
28653;SDS011;24320;56.980;24.336;2023-05-29T12:32:59;5.60;;;1.45;;
28653;SDS011;24320;56.980;24.336;2023-05-29T12:35:28;3.22;;;1.13;;
28653;SDS011;24320;56.980;24.336;2023-05-29T12:38:04;3.03;;;1.40;;
28653;SDS011;24320;56.980;24.336;2023-05-29T12:40:35;4.30;;;1.45;;
28653;SDS011;24320;56.980;24.336;2023-05-29T12:43:05;3.92;;;1.38;;
28653;SDS011;24320;56.980;24.336;2023-05-29T12:45:33;1.83;;;1.05;;
28653;SDS011;24320;56.980;24.336;2023-05-29T12:48:02;4.40;;;1.55;;
28653;SDS011;24320;56.980;24.336;2023-05-29T12:50:34;1.98;;;1.33;;
28653;SDS011;24320;56.980;24.336;2023-05-29T12:55:38;3.63;;;1.30;;
28653;SDS011;24320;56.980;24.336;2023-05-29T12:58:08;2.08;;;1.33;;
28653;SDS011;24320;56.980;24.336;2023-05-29T13:00:37;3.88;;;1.35;;
28653;SDS011;24320;56.980;24.336;2023-05-29T13:03:06;3.08;;;1.38;;
28653;SDS011;24320;56.980;24.336;2023-05-29T13:05:34;4.68;;;1.67;;
28653;SDS011;24320;56.980;24.336;2023-05-29T13:08:01;2.25;;;1.30;;
28653;SDS011;24320;56.980;24.336;2023-05-29T13:10:28;4.65;;;1.30;;
28653;SDS011;24320;56.980;24.336;2023-05-29T13:12:56;3.83;;;1.40;;
28653;SDS011;24320;56.980;24.336;2023-05-29T13:15:25;2.67;;;1.45;;
28653;SDS011;24320;56.980;24.336;2023-05-29T13:17:53;4.10;;;1.30;;
28653;SDS011;24320;56.980;24.336;2023-05-29T13:20:20;5.15;;;1.60;;
28653;SDS011;24320;56.980;24.336;2023-05-29T13:22:47;3.00;;;1.50;;
28653;SDS011;24320;56.980;24.336;2023-05-29T13:25:15;2.10;;;1.40;;
28653;SDS011;24320;56.980;24.336;2023-05-29T13:27:44;2.65;;;1.48;;
28653;SDS011;24320;56.980;24.336;2023-05-29T13:30:13;6.95;;;1.65;;
28653;SDS011;24320;56.980;24.336;2023-05-29T13:32:41;2.13;;;1.60;;
28653;SDS011;24320;56.980;24.336;2023-05-29T13:35:09;4.88;;;1.75;;
28653;SDS011;24320;56.980;24.336;2023-05-29T13:37:36;6.32;;;1.88;;
28653;SDS011;24320;56.980;24.336;2023-05-29T13:40:04;2.58;;;1.70;;
28653;SDS011;24320;56.980;24.336;2023-05-29T13:42:36;9.25;;;2.03;;
28653;SDS011;24320;56.980;24.336;2023-05-29T13:45:05;4.15;;;2.10;;
28653;SDS011;24320;56.980;24.336;2023-05-29T13:47:34;3.40;;;1.60;;
28653;SDS011;24320;56.980;24.336;2023-05-29T13:50:02;2.85;;;1.35;;
28653;SDS011;24320;56.980;24.336;2023-05-29T13:52:30;2.17;;;1.52;;
28653;SDS011;24320;56.980;24.336;2023-05-29T13:55:00;2.03;;;1.40;;
28653;SDS011;24320;56.980;24.336;2023-05-29T13:57:32;4.72;;;1.52;;
28653;SDS011;24320;56.980;24.336;2023-05-29T14:00:00;3.17;;;1.60;;
28653;SDS011;24320;56.980;24.336;2023-05-29T14:02:30;3.83;;;1.40;;
28653;SDS011;24320;56.980;24.336;2023-05-29T14:04:57;4.50;;;2.00;;
28653;SDS011;24320;56.980;24.336;2023-05-29T14:07:24;4.70;;;1.90;;
28653;SDS011;24320;56.980;24.336;2023-05-29T14:09:51;4.32;;;2.08;;
28653;SDS011;24320;56.980;24.336;2023-05-29T14:12:18;3.70;;;1.60;;
28653;SDS011;24320;56.980;24.336;2023-05-29T14:14:45;5.32;;;1.83;;
28653;SDS011;24320;56.980;24.336;2023-05-29T14:17:13;8.10;;;2.90;;
28653;SDS011;24320;56.980;24.336;2023-05-29T14:19:41;5.60;;;3.35;;
28653;SDS011;24320;56.980;24.336;2023-05-29T14:22:08;21.40;;;5.88;;
28653;SDS011;24320;56.980;24.336;2023-05-29T14:24:37;7.65;;;4.10;;
28653;SDS011;24320;56.980;24.336;2023-05-29T14:27:04;6.95;;;3.88;;
28653;SDS011;24320;56.980;24.336;2023-05-29T14:29:32;13.43;;;3.30;;
28653;SDS011;24320;56.980;24.336;2023-05-29T14:32:06;4.90;;;2.83;;
28653;SDS011;24320;56.980;24.336;2023-05-29T14:34:33;7.68;;;1.73;;
28653;SDS011;24320;56.980;24.336;2023-05-29T14:37:00;4.50;;;1.42;;
28653;SDS011;24320;56.980;24.336;2023-05-29T14:39:27;6.20;;;1.50;;
28653;SDS011;24320;56.980;24.336;2023-05-29T14:41:54;2.15;;;1.42;;
28653;SDS011;24320;56.980;24.336;2023-05-29T14:44:21;3.67;;;1.50;;
28653;SDS011;24320;56.980;24.336;2023-05-29T14:46:48;4.03;;;1.70;;
28653;SDS011;24320;56.980;24.336;2023-05-29T14:49:16;11.48;;;5.55;;
28653;SDS011;24320;56.980;24.336;2023-05-29T14:51:43;29.52;;;15.88;;
28653;SDS011;24320;56.980;24.336;2023-05-29T14:54:11;25.85;;;12.85;;
28653;SDS011;24320;56.980;24.336;2023-05-29T14:56:38;28.05;;;14.65;;
28653;SDS011;24320;56.980;24.336;2023-05-29T14:59:05;30.45;;;15.48;;
28653;SDS011;24320;56.980;24.336;2023-05-29T15:01:32;18.95;;;10.15;;
28653;SDS011;24320;56.980;24.336;2023-05-29T15:03:59;9.25;;;3.60;;
28653;SDS011;24320;56.980;24.336;2023-05-29T15:06:29;7.13;;;2.90;;
28653;SDS011;24320;56.980;24.336;2023-05-29T15:08:57;4.22;;;1.67;;
28653;SDS011;24320;56.980;24.336;2023-05-29T15:11:30;5.60;;;2.10;;
28653;SDS011;24320;56.980;24.336;2023-05-29T15:13:59;3.90;;;2.15;;
28653;SDS011;24320;56.980;24.336;2023-05-29T15:16:27;7.63;;;3.78;;
28653;SDS011;24320;56.980;24.336;2023-05-29T15:18:54;10.88;;;2.70;;
28653;SDS011;24320;56.980;24.336;2023-05-29T15:21:21;5.07;;;2.55;;
28653;SDS011;24320;56.980;24.336;2023-05-29T15:23:49;15.80;;;3.38;;